createdAt,value
2019-03-16T00:01:13.997Z,69.30
2019-03-16T00:03:48.207Z,69.30
2019-03-16T00:06:20.939Z,69.20
2019-03-16T00:08:52.329Z,68.80
2019-03-16T00:11:24.853Z,68.90
2019-03-16T00:14:02.093Z,69.10
2019-03-16T00:16:41.400Z,69.10
2019-03-16T00:19:17.163Z,69.10
2019-03-16T00:21:58.730Z,69.60
2019-03-16T00:24:28.477Z,70.00
2019-03-16T00:26:58.050Z,69.10
2019-03-16T00:29:28.142Z,68.90
2019-03-16T00:32:12.581Z,68.90
2019-03-16T00:34:30.664Z,69.20
2019-03-16T00:37:00.513Z,68.70
2019-03-16T00:39:30.224Z,68.80
2019-03-16T00:42:05.653Z,69.20
2019-03-16T00:44:37.340Z,69.90
2019-03-16T00:47:06.892Z,70.00
2019-03-16T00:49:36.448Z,70.30
2019-03-16T00:52:05.956Z,69.60
2019-03-16T00:54:35.574Z,70.10
2019-03-16T00:57:06.110Z,70.40
2019-03-16T00:59:35.698Z,70.60
2019-03-16T01:02:05.264Z,70.70
2019-03-16T01:04:35.674Z,71.00
2019-03-16T01:07:07.090Z,71.10
2019-03-16T01:09:38.082Z,71.30
2019-03-16T01:12:08.980Z,71.20
2019-03-16T01:14:38.959Z,71.40
2019-03-16T01:17:08.625Z,71.40
2019-03-16T01:19:38.130Z,71.50
2019-03-16T01:22:07.700Z,71.50
2019-03-16T01:24:37.164Z,71.60
2019-03-16T01:27:06.659Z,71.40
2019-03-16T01:29:36.172Z,71.30
2019-03-16T01:32:05.679Z,71.40
2019-03-16T01:34:35.125Z,71.70
2019-03-16T01:37:04.604Z,71.70
2019-03-16T01:39:34.290Z,71.60
2019-03-16T01:42:04.985Z,71.40
2019-03-16T01:44:34.590Z,71.50
2019-03-16T01:47:05.770Z,71.60
2019-03-16T01:49:35.301Z,72.00
2019-03-16T01:52:26.095Z,71.90
2019-03-16T01:54:56.552Z,72.00
2019-03-16T01:57:27.471Z,72.20
2019-03-16T01:59:56.985Z,72.20
2019-03-16T02:02:28.441Z,72.10
2019-03-16T02:04:58.023Z,72.30
2019-03-16T02:07:27.521Z,72.40
2019-03-16T02:09:58.328Z,72.50
2019-03-16T02:12:28.358Z,72.80
2019-03-16T02:14:57.828Z,73.00
2019-03-16T02:17:27.341Z,73.20
2019-03-16T02:19:56.873Z,73.70
2019-03-16T02:22:26.335Z,73.40
2019-03-16T02:24:55.807Z,73.50
2019-03-16T02:27:25.339Z,73.60
2019-03-16T02:29:55.045Z,73.60
2019-03-16T02:32:25.737Z,73.70
2019-03-16T02:34:55.335Z,73.80
2019-03-16T02:37:25.291Z,74.10
2019-03-16T02:39:54.873Z,74.60
2019-03-16T02:42:24.829Z,75.40
2019-03-16T02:44:55.997Z,75.60
2019-03-16T02:47:25.545Z,76.10
2019-03-16T02:49:56.455Z,76.40
2019-03-16T02:52:29.041Z,77.30
2019-03-16T02:54:59.570Z,77.20
2019-03-16T02:57:38.495Z,77.70
2019-03-16T03:00:11.696Z,77.70
2019-03-16T03:02:50.835Z,77.90
2019-03-16T03:05:23.525Z,78.00
2019-03-16T03:07:54.942Z,77.70
2019-03-16T03:10:33.600Z,77.90
2019-03-16T03:13:13.337Z,77.90
2019-03-16T03:15:41.672Z,78.20
2019-03-16T03:18:11.707Z,78.20
2019-03-16T03:21:02.331Z,78.00
2019-03-16T03:23:33.296Z,77.80
2019-03-16T03:26:03.768Z,78.30
2019-03-16T03:28:33.704Z,77.90
2019-03-16T03:31:04.524Z,77.60
2019-03-16T03:33:57.239Z,77.60
2019-03-16T03:36:05.758Z,77.70
2019-03-16T03:38:35.533Z,77.50
2019-03-16T03:41:08.957Z,77.50
2019-03-16T03:44:05.588Z,78.00
2019-03-16T03:46:35.630Z,78.20
2019-03-16T03:49:25.438Z,78.90
2019-03-16T03:51:55.001Z,80.30
2019-03-16T03:54:24.488Z,80.30
2019-03-16T03:56:54.022Z,80.00
2019-03-16T03:59:23.523Z,79.80
2019-03-16T04:01:52.989Z,81.10
2019-03-16T04:04:22.482Z,81.00
2019-03-16T04:06:51.893Z,80.90
2019-03-16T04:09:21.461Z,80.90
2019-03-16T04:11:52.357Z,82.30
2019-03-16T04:14:21.904Z,82.30
2019-03-16T04:16:53.128Z,82.40
2019-03-16T04:19:24.007Z,84.20
2019-03-16T04:21:53.605Z,84.40
2019-03-16T04:24:27.206Z,83.60
2019-03-16T04:26:56.732Z,85.20
2019-03-16T04:29:26.266Z,83.90
2019-03-16T04:31:55.723Z,85.90
2019-03-16T04:34:29.631Z,87.00
2019-03-16T04:36:57.839Z,87.20
2019-03-16T04:39:27.339Z,86.30
2019-03-16T04:41:57.228Z,86.70
2019-03-16T04:44:26.683Z,86.50
2019-03-16T04:46:56.196Z,85.90
2019-03-16T04:49:25.765Z,84.80
2019-03-16T04:51:55.208Z,86.50
2019-03-16T04:54:25.043Z,85.90
2019-03-16T04:56:54.487Z,86.80
2019-03-16T04:59:23.953Z,86.70
2019-03-16T05:01:53.410Z,86.60
2019-03-16T05:04:25.703Z,86.80
2019-03-16T05:06:55.537Z,86.90
2019-03-16T05:09:25.241Z,86.70
2019-03-16T05:11:54.749Z,86.60
2019-03-16T05:14:24.248Z,85.70
2019-03-16T05:16:53.698Z,85.10
2019-03-16T05:19:23.207Z,86.70
2019-03-16T05:21:52.635Z,87.40
2019-03-16T05:24:22.060Z,88.30
2019-03-16T05:26:51.504Z,89.20
2019-03-16T05:29:21.145Z,88.80
2019-03-16T05:31:50.896Z,89.10
2019-03-16T05:34:20.468Z,89.80
2019-03-16T05:36:49.935Z,90.20
2019-03-16T05:39:19.528Z,90.50
2019-03-16T05:41:49.992Z,90.50
2019-03-16T05:44:19.423Z,90.60
2019-03-16T05:46:48.930Z,90.80
2019-03-16T05:49:18.347Z,90.90
2019-03-16T05:51:48.173Z,91.00
2019-03-16T05:54:17.584Z,91.10
2019-03-16T05:56:47.264Z,91.20
2019-03-16T05:59:16.669Z,91.20
2019-03-16T06:01:46.080Z,91.30
2019-03-16T06:04:15.531Z,91.20
2019-03-16T06:06:45.095Z,91.50
2019-03-16T06:09:14.568Z,91.60
2019-03-16T06:11:44.012Z,91.50
2019-03-16T06:14:13.554Z,91.60
2019-03-16T06:16:43.341Z,91.70
2019-03-16T06:19:12.781Z,91.80
2019-03-16T06:21:42.468Z,91.80
2019-03-16T06:24:11.925Z,91.80
2019-03-16T06:26:41.516Z,91.90
2019-03-16T06:29:11.180Z,92.00
2019-03-16T06:31:40.668Z,92.00
2019-03-16T06:34:10.193Z,92.30
2019-03-16T06:36:39.754Z,92.30
2019-03-16T06:39:10.038Z,92.20
2019-03-16T06:41:39.511Z,92.10
2019-03-16T06:44:08.921Z,92.20
2019-03-16T06:46:38.429Z,92.30
2019-03-16T06:49:07.917Z,92.20
2019-03-16T06:51:37.379Z,92.40
2019-03-16T06:54:08.188Z,92.30
2019-03-16T06:56:37.745Z,92.40
2019-03-16T06:59:07.171Z,92.40
2019-03-16T07:01:38.085Z,92.50
2019-03-16T07:04:07.550Z,92.50
2019-03-16T07:06:37.103Z,92.60
2019-03-16T07:09:08.701Z,92.80
2019-03-16T07:11:39.350Z,93.00
2019-03-16T07:14:08.818Z,92.90
2019-03-16T07:16:38.256Z,93.00
2019-03-16T07:19:07.776Z,93.00
2019-03-16T07:21:37.284Z,93.00
2019-03-16T07:24:06.723Z,93.00
2019-03-16T07:26:36.139Z,93.10
2019-03-16T07:29:06.954Z,93.10
2019-03-16T07:31:36.362Z,93.10
2019-03-16T07:34:05.838Z,93.20
2019-03-16T07:36:36.156Z,93.20
2019-03-16T07:39:07.794Z,93.30
2019-03-16T07:41:37.241Z,93.20
2019-03-16T07:44:06.690Z,93.00
2019-03-16T07:46:37.187Z,93.20
2019-03-16T07:49:09.668Z,93.30
2019-03-16T07:51:39.982Z,93.30
2019-03-16T07:54:09.464Z,93.40
2019-03-16T07:56:39.366Z,93.40
2019-03-16T07:59:08.832Z,93.50
2019-03-16T08:01:38.319Z,93.50
2019-03-16T08:04:09.254Z,93.60
2019-03-16T08:06:38.756Z,93.60
2019-03-16T08:09:08.858Z,93.50
2019-03-16T08:11:38.439Z,93.60
2019-03-16T08:14:07.881Z,93.60
2019-03-16T08:16:37.379Z,93.50
2019-03-16T08:19:06.980Z,93.60
2019-03-16T08:21:36.448Z,93.40
2019-03-16T08:24:05.866Z,93.50
2019-03-16T08:26:35.295Z,93.50
2019-03-16T08:29:04.896Z,93.50
2019-03-16T08:31:34.428Z,93.40
2019-03-16T08:34:03.872Z,93.20
2019-03-16T08:36:33.331Z,93.20
2019-03-16T08:39:02.788Z,93.20
2019-03-16T08:41:33.171Z,93.10
2019-03-16T08:44:03.263Z,92.90
2019-03-16T08:46:32.784Z,92.60
2019-03-16T08:49:02.189Z,92.70
2019-03-16T08:51:31.969Z,92.60
2019-03-16T08:54:01.384Z,92.50
2019-03-16T08:56:30.803Z,92.30
2019-03-16T08:59:00.220Z,92.30
2019-03-16T09:01:29.765Z,92.50
2019-03-16T09:03:59.236Z,92.10
2019-03-16T09:06:28.762Z,92.20
2019-03-16T09:08:58.367Z,92.30
2019-03-16T09:11:27.780Z,92.00
2019-03-16T09:13:57.247Z,91.80
2019-03-16T09:16:26.787Z,92.00
2019-03-16T09:18:56.300Z,92.00
2019-03-16T09:21:25.703Z,91.60
2019-03-16T09:23:55.203Z,91.80
2019-03-16T09:26:24.828Z,91.50
2019-03-16T09:28:59.947Z,91.50
2019-03-16T09:31:25.468Z,91.40
2019-03-16T09:33:54.944Z,91.50
2019-03-16T09:36:24.744Z,91.30
2019-03-16T09:38:54.835Z,91.00
2019-03-16T09:41:24.324Z,90.90
2019-03-16T09:43:53.991Z,91.10
2019-03-16T09:46:23.486Z,91.00
2019-03-16T09:48:53.010Z,90.50
2019-03-16T09:51:22.468Z,90.50
2019-03-16T09:53:52.032Z,90.40
2019-03-16T09:56:21.503Z,90.50
2019-03-16T09:58:51.108Z,90.50
2019-03-16T10:01:20.785Z,90.10
2019-03-16T10:03:50.252Z,89.60
2019-03-16T10:06:19.680Z,89.20
2019-03-16T10:08:49.254Z,90.10
2019-03-16T10:11:18.725Z,89.60
2019-03-16T10:13:48.117Z,88.50
2019-03-16T10:16:17.771Z,88.40
2019-03-16T10:18:47.345Z,88.40
2019-03-16T10:21:18.867Z,87.90
2019-03-16T10:23:49.602Z,87.90
2019-03-16T10:26:19.073Z,88.80
2019-03-16T10:28:48.590Z,88.20
2019-03-16T10:31:18.041Z,88.30
2019-03-16T10:33:47.561Z,88.10
2019-03-16T10:36:16.979Z,87.30
2019-03-16T10:38:49.568Z,86.80
2019-03-16T10:41:19.033Z,87.30
2019-03-16T10:43:48.746Z,86.90
2019-03-16T10:46:18.236Z,86.90
2019-03-16T10:48:47.769Z,86.40
2019-03-16T10:51:17.286Z,85.90
2019-03-16T10:53:46.897Z,85.00
2019-03-16T10:56:16.332Z,85.60
2019-03-16T10:58:56.189Z,84.00
2019-03-16T11:01:16.968Z,83.60
2019-03-16T11:03:46.470Z,82.60
2019-03-16T11:06:18.975Z,82.60
2019-03-16T11:08:48.454Z,84.70
2019-03-16T11:11:18.007Z,82.30
2019-03-16T11:13:47.772Z,82.50
2019-03-16T11:16:17.514Z,80.30
2019-03-16T11:18:47.136Z,80.20
2019-03-16T11:21:16.683Z,80.80
2019-03-16T11:23:46.570Z,80.80
2019-03-16T11:26:16.015Z,81.70
2019-03-16T11:28:45.521Z,81.70
2019-03-16T11:31:15.270Z,80.10
2019-03-16T11:33:44.948Z,80.20
2019-03-16T11:36:14.498Z,79.70
2019-03-16T11:38:45.051Z,80.00
2019-03-16T11:41:14.589Z,78.90
2019-03-16T11:43:44.391Z,79.60
2019-03-16T11:46:13.777Z,78.60
2019-03-16T11:48:44.641Z,80.80
2019-03-16T11:51:14.185Z,80.50
2019-03-16T11:53:43.694Z,78.00
2019-03-16T11:56:17.913Z,78.50
2019-03-16T11:58:44.372Z,77.20
2019-03-16T12:01:13.808Z,77.10
2019-03-16T12:03:44.368Z,76.20
2019-03-16T12:06:14.071Z,75.40
2019-03-16T12:08:43.589Z,75.60
2019-03-16T12:11:13.306Z,76.10
2019-03-16T12:13:44.079Z,74.60
2019-03-16T12:16:13.616Z,75.80
2019-03-16T12:18:43.010Z,72.80
2019-03-16T12:21:13.338Z,72.60
2019-03-16T12:23:42.858Z,74.50
2019-03-16T12:26:13.839Z,74.10
2019-03-16T12:28:43.369Z,74.90
2019-03-16T12:31:13.136Z,74.80
2019-03-16T12:33:42.692Z,75.00
2019-03-16T12:36:12.363Z,74.20
2019-03-16T12:38:41.959Z,75.70
2019-03-16T12:41:11.497Z,74.50
2019-03-16T12:43:41.307Z,74.90
2019-03-16T12:46:11.060Z,75.40
2019-03-16T12:48:41.571Z,75.10
2019-03-16T12:51:11.219Z,74.30
2019-03-16T12:53:40.949Z,74.80
2019-03-16T12:56:12.271Z,74.40
2019-03-16T12:58:41.863Z,73.40
2019-03-16T13:01:12.618Z,74.30
2019-03-16T13:03:42.439Z,73.90
2019-03-16T13:06:13.417Z,74.20
2019-03-16T13:08:43.605Z,74.10
2019-03-16T13:11:13.311Z,74.10
2019-03-16T13:13:42.992Z,74.70
2019-03-16T13:16:12.719Z,73.40
2019-03-16T13:18:42.340Z,74.00
2019-03-16T13:21:12.123Z,73.40
2019-03-16T13:23:43.125Z,71.90
2019-03-16T13:26:12.877Z,72.40
2019-03-16T13:28:42.930Z,72.90
2019-03-16T13:31:12.545Z,73.00
2019-03-16T13:33:42.288Z,73.00
2019-03-16T13:36:12.858Z,73.10
2019-03-16T13:38:42.891Z,72.60
2019-03-16T13:41:12.532Z,71.90
2019-03-16T13:43:42.173Z,70.50
2019-03-16T13:46:11.986Z,71.20
2019-03-16T13:48:41.577Z,70.40
2019-03-16T13:51:12.891Z,70.90
2019-03-16T13:53:42.557Z,71.00
2019-03-16T13:56:12.221Z,69.40
2019-03-16T13:58:43.652Z,69.30
2019-03-16T14:01:15.349Z,69.50
2019-03-16T14:03:44.907Z,69.60
2019-03-16T14:06:14.758Z,70.30
2019-03-16T14:08:44.478Z,70.30
2019-03-16T14:11:14.316Z,69.80
2019-03-16T14:13:43.969Z,70.40
2019-03-16T14:16:13.864Z,70.20
2019-03-16T14:18:44.056Z,70.00
2019-03-16T14:21:14.047Z,69.90
2019-03-16T14:23:44.492Z,70.10
2019-03-16T14:26:14.130Z,70.20
2019-03-16T14:28:43.781Z,70.00
2019-03-16T14:31:13.496Z,69.70
2019-03-16T14:33:44.014Z,70.50
2019-03-16T14:36:13.878Z,70.10
2019-03-16T14:38:43.762Z,70.30
2019-03-16T14:41:13.485Z,70.60
2019-03-16T14:43:43.449Z,70.00
2019-03-16T14:46:13.172Z,70.00
2019-03-16T14:48:43.096Z,70.30
2019-03-16T14:51:13.555Z,70.30
2019-03-16T14:53:43.541Z,70.20
2019-03-16T14:56:13.129Z,70.30
2019-03-16T14:58:42.749Z,70.30
2019-03-16T15:01:13.312Z,69.60
2019-03-16T15:03:43.352Z,69.40
2019-03-16T15:06:12.823Z,69.40
2019-03-16T15:08:42.426Z,68.80
2019-03-16T15:11:21.132Z,69.20
2019-03-16T15:13:51.294Z,69.00
2019-03-16T15:16:21.303Z,67.70
2019-03-16T15:18:50.853Z,67.80
2019-03-16T15:21:20.698Z,68.50
2019-03-16T15:23:51.801Z,68.20
2019-03-16T15:26:21.812Z,68.60
2019-03-16T15:28:54.987Z,68.20
2019-03-16T15:31:22.936Z,68.30
2019-03-16T15:33:52.589Z,68.90
2019-03-16T15:36:22.191Z,68.00
2019-03-16T15:38:52.006Z,68.30
2019-03-16T15:41:21.612Z,68.10
2019-03-16T15:43:51.285Z,68.10
2019-03-16T15:46:20.961Z,68.70
2019-03-16T15:48:52.143Z,67.80
2019-03-16T15:51:23.909Z,68.40
2019-03-16T15:53:53.017Z,68.30
2019-03-16T15:56:22.660Z,67.70
2019-03-16T15:58:52.646Z,67.60
2019-03-16T16:01:22.669Z,67.70
2019-03-16T16:03:52.264Z,67.20
2019-03-16T16:06:21.852Z,68.20
2019-03-16T16:08:51.405Z,67.30
2019-03-16T16:11:20.991Z,67.30
2019-03-16T16:13:50.964Z,67.00
2019-03-16T16:16:21.274Z,67.30
2019-03-16T16:18:51.091Z,66.60
2019-03-16T16:21:20.627Z,66.90
2019-03-16T16:23:50.106Z,67.20
2019-03-16T16:26:19.946Z,67.60
2019-03-16T16:28:49.593Z,66.80
2019-03-16T16:31:19.203Z,67.20
2019-03-16T16:33:48.704Z,67.20
2019-03-16T16:36:18.215Z,66.80
2019-03-16T16:38:48.012Z,67.00
2019-03-16T16:41:17.511Z,67.00
2019-03-16T16:43:47.273Z,66.70
2019-03-16T16:46:17.568Z,66.90
2019-03-16T16:48:47.070Z,66.90
2019-03-16T16:51:16.939Z,66.40
2019-03-16T16:53:46.476Z,66.30
2019-03-16T16:56:16.282Z,66.20
2019-03-16T16:58:46.140Z,66.40
2019-03-16T17:01:28.864Z,66.30
2019-03-16T17:03:48.831Z,66.20
2019-03-16T17:06:18.618Z,66.10
2019-03-16T17:08:48.490Z,66.50
2019-03-16T17:11:19.843Z,66.10
2019-03-16T17:13:49.689Z,66.50
2019-03-16T17:16:19.379Z,66.50
2019-03-16T17:18:49.055Z,66.50
2019-03-16T17:21:19.909Z,66.40
2019-03-16T17:23:49.668Z,67.10
2019-03-16T17:26:19.300Z,66.80
2019-03-16T17:28:49.042Z,67.50
2019-03-16T17:31:19.243Z,67.00
2019-03-16T17:33:50.450Z,66.90
2019-03-16T17:36:22.356Z,67.00
2019-03-16T17:38:53.087Z,67.00
2019-03-16T17:41:22.911Z,67.40
2019-03-16T17:43:57.320Z,67.70
2019-03-16T17:46:33.539Z,67.50
2019-03-16T17:49:03.203Z,67.50
2019-03-16T17:51:42.166Z,67.80
2019-03-16T17:54:13.595Z,67.80
2019-03-16T17:56:43.977Z,67.80
2019-03-16T17:59:13.955Z,68.10
2019-03-16T18:01:54.561Z,68.60
2019-03-16T18:04:18.057Z,68.60
2019-03-16T18:06:48.758Z,68.70
2019-03-16T18:09:23.283Z,69.10
2019-03-16T18:11:54.645Z,69.20
2019-03-16T18:14:31.977Z,69.20
2019-03-16T18:17:05.443Z,69.10
2019-03-16T18:19:35.244Z,69.10
2019-03-16T18:22:05.173Z,69.00
2019-03-16T18:24:34.965Z,69.30
2019-03-16T18:27:05.465Z,69.40
2019-03-16T18:29:35.760Z,69.50
2019-03-16T18:32:08.160Z,69.60
2019-03-16T18:34:36.754Z,69.90
2019-03-16T18:37:06.351Z,70.30
2019-03-16T18:39:35.902Z,70.70
2019-03-16T18:42:05.694Z,70.10
2019-03-16T18:44:35.309Z,70.70
2019-03-16T18:47:07.785Z,70.80
2019-03-16T18:49:37.470Z,71.00
2019-03-16T18:52:07.195Z,70.90
2019-03-16T18:54:36.877Z,70.90
2019-03-16T18:57:07.614Z,71.30
2019-03-16T18:59:37.443Z,71.50
2019-03-16T19:02:19.960Z,71.30
2019-03-16T19:04:38.530Z,71.40
2019-03-16T19:07:08.170Z,71.40
2019-03-16T19:09:37.880Z,71.70
2019-03-16T19:12:07.842Z,71.80
2019-03-16T19:14:37.553Z,71.80
2019-03-16T19:17:07.257Z,71.80
2019-03-16T19:19:36.789Z,72.10
2019-03-16T19:22:06.889Z,72.80
2019-03-16T19:24:36.409Z,71.70
2019-03-16T19:27:06.190Z,72.10
2019-03-16T19:29:35.793Z,72.10
2019-03-16T19:32:05.839Z,72.20
2019-03-16T19:34:35.571Z,72.10
2019-03-16T19:37:05.187Z,72.10
2019-03-16T19:39:35.008Z,72.00
2019-03-16T19:42:05.140Z,72.00
2019-03-16T19:44:34.889Z,72.00
2019-03-16T19:47:04.579Z,72.10
2019-03-16T19:49:34.213Z,71.90
2019-03-16T19:52:22.770Z,72.10
2019-03-16T19:54:52.501Z,71.90
2019-03-16T19:57:22.080Z,72.10
2019-03-16T19:59:52.776Z,71.90
2019-03-16T20:02:22.588Z,72.00
2019-03-16T20:04:52.060Z,72.00
2019-03-16T20:07:23.031Z,72.00
2019-03-16T20:09:52.943Z,71.90
2019-03-16T20:12:22.481Z,71.80
2019-03-16T20:14:51.999Z,71.80
2019-03-16T20:17:21.661Z,71.90
2019-03-16T20:19:52.062Z,71.50
2019-03-16T20:22:21.594Z,71.30
2019-03-16T20:24:51.189Z,71.70
2019-03-16T20:27:20.812Z,71.80
2019-03-16T20:29:50.293Z,71.70
2019-03-16T20:32:19.934Z,72.00
2019-03-16T20:34:49.711Z,72.00
2019-03-16T20:37:19.332Z,71.90
2019-03-16T20:39:48.835Z,72.00
2019-03-16T20:42:19.126Z,71.60
2019-03-16T20:44:49.761Z,71.60
2019-03-16T20:47:19.248Z,71.60
2019-03-16T20:49:48.826Z,71.60
2019-03-16T20:52:18.387Z,71.60
2019-03-16T20:54:47.970Z,71.20
2019-03-16T20:57:17.670Z,71.20
2019-03-16T20:59:47.226Z,71.40
2019-03-16T21:02:16.664Z,71.20
2019-03-16T21:04:47.056Z,71.20
2019-03-16T21:07:19.727Z,71.00
2019-03-16T21:09:49.312Z,71.00
2019-03-16T21:12:35.285Z,71.10
2019-03-16T21:15:06.512Z,70.30
2019-03-16T21:17:55.727Z,70.20
2019-03-16T21:21:21.003Z,70.30
2019-03-16T21:24:00.970Z,70.30
2019-03-16T21:26:30.386Z,69.80
2019-03-16T21:28:59.903Z,69.70
2019-03-16T21:31:29.612Z,69.40
2019-03-16T21:33:59.265Z,69.40
2019-03-16T21:36:40.527Z,69.00
2019-03-16T21:39:01.563Z,69.00
2019-03-16T21:41:31.082Z,69.20
2019-03-16T21:44:00.515Z,68.30
2019-03-16T21:46:31.323Z,67.90
2019-03-16T21:49:00.872Z,68.00
2019-03-16T21:51:30.737Z,67.60
2019-03-16T21:54:00.838Z,67.60
2019-03-16T21:56:30.395Z,67.50
2019-03-16T21:58:59.935Z,67.30
2019-03-16T22:01:29.559Z,67.50
2019-03-16T22:03:59.174Z,67.50
2019-03-16T22:06:28.749Z,67.40
2019-03-16T22:08:58.293Z,67.30
2019-03-16T22:11:27.818Z,67.50
2019-03-16T22:13:57.328Z,67.70
2019-03-16T22:16:26.940Z,67.60
2019-03-16T22:18:56.338Z,67.30
2019-03-16T22:21:25.744Z,67.20
2019-03-16T22:23:55.399Z,67.10
2019-03-16T22:26:24.843Z,67.10
2019-03-16T22:28:54.299Z,67.00
2019-03-16T22:31:23.696Z,66.70
2019-03-16T22:33:55.012Z,66.60
2019-03-16T22:36:24.679Z,66.80
2019-03-16T22:38:54.172Z,66.40
2019-03-16T22:41:23.752Z,66.40
2019-03-16T22:43:53.184Z,66.90
2019-03-16T22:46:22.619Z,67.20
2019-03-16T22:48:52.068Z,67.00
2019-03-16T22:51:21.569Z,66.90
2019-03-16T22:53:50.994Z,66.90
2019-03-16T22:56:20.486Z,66.60
2019-03-16T22:58:49.873Z,66.60
2019-03-16T23:01:19.418Z,66.80
2019-03-16T23:03:49.569Z,66.50
2019-03-16T23:09:18.673Z,66.80
2019-03-16T23:11:50.351Z,66.60
2019-03-16T23:14:25.006Z,66.30
2019-03-16T23:16:56.378Z,66.10
2019-03-16T23:19:28.824Z,66.30
2019-03-16T23:21:59.595Z,67.20
2019-03-16T23:24:29.113Z,66.10
2019-03-16T23:26:58.548Z,65.80
2019-03-16T23:29:28.074Z,65.60
2019-03-16T23:31:58.963Z,65.70
2019-03-16T23:34:29.384Z,65.50
2019-03-16T23:36:59.298Z,65.40
2019-03-16T23:39:38.375Z,65.40
2019-03-16T23:42:08.285Z,66.30
2019-03-16T23:44:37.764Z,68.90
2019-03-16T23:47:07.255Z,68.90
2019-03-16T23:49:36.785Z,68.90
2019-03-16T23:52:09.022Z,69.30
2019-03-16T23:54:38.607Z,69.70
2019-03-16T23:57:08.200Z,69.90
2019-03-16T23:59:39.955Z,70.70
